Latest Weather Observations for Red Rocks Point

IDW60801

Issued at 10:34 am WST Thursday 23 February 2017 (issued every 30 minutes, with the page automatically refreshed every 10 minutes)

About weather observations | Map of weather stations | Latest weather observations for WA | Other Formats
Station Details ID: 011053 Name: RED ROCKS POINT Lat: -32.20 Lon: 127.53 Height: 3.1 m
Data from the previous 72 hours. | See also: Recent months at Red Rocks Point
Date/Time
WST
Temp
°C
App
Temp
°C
Dew
Point
°C
Rel
Hum
%
Delta-T
°C
Wind Press
QNH
hPa
Press
MSL
hPa
Rain since
9am
mm
Dir  Spd
km/h
Gust
km/h
Spd
kts
Gust
kts
23/10:30am 22.8 21.0 10.9 47 6.6 SSE 11 13 6 7 1024.4 1024.4 0.0
23/10:00am 22.9 20.9 11.6 49 6.3 S 13 17 7 9 1024.5 1024.5 0.0
23/09:30am 22.4 20.9 11.8 51 6.0 SSE 11 17 6 9 1024.5 1024.5 0.0
23/09:00am 21.1 20.1 12.3 57 4.9 S 9 13 5 7 1024.5 1024.5 0.0
23/08:30am 20.0 18.7 11.2 57 4.8 S 9 11 5 6 1024.3 1024.3 0.0
23/08:00am 20.1 19.6 13.8 67 3.6 WSW 9 9 5 5 1024.1 1024.1 0.0
23/07:30am 19.1 18.6 13.7 71 3.1 WNW 9 11 5 6 1023.7 1023.7 0.0
23/07:00am 16.2 14.9 12.6 79 2.0 NW 11 13 6 7 1023.5 1023.5 0.0
23/06:30am 14.6 12.6 11.6 82 1.6 NW 13 13 7 7 1023.0 1023.0 0.0
23/06:00am 13.4 11.0 11.3 87 1.1 WNW 15 17 8 9 1022.8 1022.8 0.0
23/05:30am 12.2 8.8 10.4 89 0.9 WNW 19 20 10 11 1022.4 1022.4 0.0
23/05:00am 11.9 8.3 10.0 88 1.0 WNW 19 20 10 11 1022.1 1022.1 0.0
23/04:30am 12.2 8.7 10.3 88 1.0 WNW 19 19 10 10 1021.7 1021.7 0.0
23/04:00am 12.5 9.3 10.0 85 1.3 WNW 17 19 9 10 1021.2 1021.2 0.0
23/03:30am 13.8 11.9 10.4 80 1.8 WNW 11 13 6 7 1021.0 1021.0 0.0
23/03:00am 17.0 15.9 12.1 73 2.7 S 9 13 5 7 1020.8 1020.8 0.0
23/02:30am 17.6 15.6 11.6 68 3.3 SSW 13 17 7 9 1020.7 1020.7 0.0
23/02:00am 18.2 16.2 12.6 70 3.1 S 15 20 8 11 1020.7 1020.7 0.0
23/01:30am 18.0 15.6 12.7 71 3.0 SSW 17 20 9 11 1020.8 1020.8 0.0
23/01:00am 18.5 16.3 13.4 72 2.9 SSW 17 22 9 12 1020.7 1020.7 0.0
23/12:30am 18.5 16.1 14.4 77 2.4 S 20 24 11 13 1021.0 1021.0 0.0
23/12:00am 19.0 16.8 14.3 74 2.7 S 19 24 10 13 1021.1 1021.1 0.0
 
Date/Time
WST
Temp
°C
App
Temp
°C
Dew
Point
°C
Rel
Hum
%
Delta-T
°C
Wind Press
QNH
hPa
Press
MSL
hPa
Rain since
9am
mm
Dir  Spd
km/h
Gust
km/h
Spd
kts
Gust
kts
22/11:30pm 18.3 15.3 12.7 70 3.1 S 20 26 11 14 1021.0 1021.0 0.0
22/11:00pm 18.3 16.6 12.3 68 3.3 SSW 13 17 7 9 1021.1 1021.1 0.0
22/10:30pm 18.4 15.6 12.6 69 3.2 S 19 24 10 13 1021.1 1021.1 0.0
22/10:00pm 18.2 15.7 12.4 69 3.2 S 17 22 9 12 1021.1 1021.1 0.0
22/09:30pm 18.2 15.5 11.7 66 3.6 SSW 17 22 9 12 1021.1 1021.1 0.0
22/09:00pm 18.4 15.3 12.2 67 3.4 S 20 24 11 13 1021.1 1021.1 0.0
22/08:30pm 18.1 15.5 11.9 67 3.4 SSW 17 26 9 14 1020.9 1020.9 0.0
22/08:00pm 18.1 15.8 11.9 67 3.4 SSW 15 22 8 12 1020.7 1020.7 0.0
22/07:30pm 18.2 15.4 11.3 64 3.8 SSW 17 22 9 12 1020.4 1020.4 0.0
22/07:00pm 18.4 15.9 12.2 67 3.4 SSW 17 24 9 13 1020.1 1020.1 0.0
22/06:30pm 18.7 15.8 12.2 66 3.6 SSW 19 30 10 16 1019.6 1019.6 0.0
22/06:00pm 19.1 16.0 11.7 62 4.1 SW 19 26 10 14 1019.2 1019.2 0.0
22/05:30pm 19.6 16.5 12.1 62 4.2 SW 20 28 11 15 1018.8 1018.8 0.0
22/05:00pm 20.2 16.8 11.1 56 5.0 SW 20 28 11 15 1018.7 1018.7 0.0
22/04:30pm 21.2 17.9 11.5 54 5.4 SW 20 32 11 17 1018.3 1018.3 0.0
22/04:00pm 21.7 18.5 12.0 54 5.4 SW 20 32 11 17 1018.0 1018.0 0.0
22/03:30pm 22.1 19.0 12.1 53 5.6 SW 20 30 11 16 1017.8 1017.8 0.0
22/03:00pm 21.4 18.6 13.1 59 4.7 SSW 20 30 11 16 1017.7 1017.7 0.0
22/02:30pm 22.3 18.1 12.3 53 5.7 SW 26 37 14 20 1017.6 1017.6 0.0
22/02:00pm 23.1 19.5 14.1 57 5.3 SW 26 39 14 21 1017.5 1017.5 0.0
22/01:30pm 23.4 19.5 12.1 49 6.4 SW 24 35 13 19 1017.3 1017.3 0.0
22/01:00pm 23.3 19.0 12.0 49 6.4 SW 26 35 14 19 1017.5 1017.5 0.0
22/12:30pm 23.2 18.9 12.2 50 6.2 SW 26 35 14 19 1017.5 1017.5 0.0
22/12:00pm 23.1 19.2 12.1 50 6.2 SW 24 33 13 18 1017.5 1017.5 0.0
22/11:30am 23.5 19.9 11.9 48 6.6 SW 22 32 12 17 1017.4 1017.4 0.0
22/11:00am 23.2 19.6 11.9 49 6.4 SW 22 35 12 19 1017.2 1017.2 0.0
22/10:30am 21.9 18.0 12.2 54 5.5 SW 24 33 13 18 1017.0 1017.0 0.0
22/10:00am 22.9 19.3 11.9 50 6.2 SW 22 32 12 17 1016.8 1016.8 0.0
22/09:30am 22.3 18.5 12.3 53 5.7 SW 24 35 13 19 1016.5 1016.5 0.0
22/09:00am 21.3 17.0 11.9 55 5.3 SW 26 37 14 20 1016.3 1016.3 15.6
22/08:30am 21.9 18.0 12.2 54 5.5 SW 24 35 13 19 1016.1 1016.1 15.6
22/08:00am 21.2 17.2 11.8 55 5.2 SW 24 35 13 19 1015.7 1015.7 15.6
22/07:30am 20.5 16.2 12.0 58 4.7 SW 26 37 14 20 1015.3 1015.3 15.6
22/07:00am 20.3 16.7 13.0 63 4.1 SW 24 37 13 20 1014.8 1014.8 15.6
22/06:30am 18.7 14.6 12.7 68 3.4 SW 26 39 14 21 1014.4 1014.4 15.6
22/06:03am 18.5 14.0 12.5 68 3.3 SW 28 46 15 25 1014.0 1014.0 15.6
22/06:00am 18.4 13.4 12.2 67 3.4 SW 30 46 16 25 1014.0 1014.0 15.6
22/05:54am 18.3 13.7 12.3 68 3.3 SW 28 46 15 25 1013.8 1013.8 15.6
22/05:30am 18.0 12.5 12.0 68 3.3 SW 32 48 17 26 1013.6 1013.6 15.6
22/05:00am 18.0 12.5 11.8 67 3.4 SW 32 46 17 25 1013.2 1013.2 15.6
22/04:30am 17.8 11.8 10.7 63 3.8 WSW 33 50 18 27 1012.8 1012.8 15.6
22/04:00am 17.8 12.0 11.6 67 3.4 WSW 33 54 18 29 1012.3 1012.3 15.6
22/03:36am 17.6 12.1 12.3 71 2.9 WSW 33 54 18 29 1012.2 1012.2 15.6
22/03:30am 17.4 12.7 12.1 71 2.9 W 28 48 15 26 1012.1 1012.1 15.6
22/03:00am 17.6 12.4 11.6 68 3.3 WSW 30 52 16 28 1012.2 1012.2 15.6
22/02:30am 17.7 12.0 11.3 66 3.5 WSW 32 50 17 27 1011.7 1011.7 15.6
22/02:10am 17.2 13.3 10.8 66 3.4 W 22 46 12 25 1011.5 1011.5 15.6
22/02:00am 16.1 12.7 9.1 63 3.6 WNW 17 30 9 16 1011.7 1011.7 15.6
22/01:30am 17.6 11.9 9.8 60 4.1 WSW 30 46 16 25 1011.6 1011.6 15.6
22/01:00am 17.6 12.0 8.7 56 4.6 W 28 50 15 27 1011.5 1011.5 15.6
22/12:40am 17.7 12.2 9.3 58 4.4 WSW 28 46 15 25 1011.4 1011.4 15.6
22/12:30am 17.3 12.0 8.4 56 4.6 W 26 41 14 22 1011.4 1011.4 15.6
22/12:00am 17.7 11.3 9.3 58 4.4 WSW 33 54 18 29 1011.3 1011.3 15.6
 
Date/Time
WST
Temp
°C
App
Temp
°C
Dew
Point
°C
Rel
Hum
%
Delta-T
°C
Wind Press
QNH
hPa
Press
MSL
hPa
Rain since
9am
mm
Dir  Spd
km/h
Gust
km/h
Spd
kts
Gust
kts
21/11:30pm 18.0 11.2 9.4 57 4.5 WSW 35 56 19 30 1011.4 1011.4 15.6
21/11:00pm 18.0 11.2 9.1 56 4.6 WSW 35 56 19 30 1011.5 1011.5 15.6
21/10:31pm 18.2 11.7 10.3 60 4.2 WSW 35 54 19 29 1011.5 1011.5 15.6
21/10:30pm 18.3 11.4 10.4 60 4.2 WSW 37 54 20 29 1011.5 1011.5 15.6
21/10:00pm 18.0 12.1 10.6 62 4.0 WSW 32 50 17 27 1011.7 1011.7 15.6
21/09:37pm 18.0 12.1 11.3 65 3.6 SW 33 52 18 28 1011.6 1011.6 15.6
21/09:30pm 18.0 12.0 10.9 63 3.8 SW 33 48 18 26 1011.6 1011.6 15.6
21/09:00pm 18.0 12.1 11.1 64 3.7 SW 33 54 18 29 1011.5 1011.5 15.6
21/08:30pm 17.8 12.2 11.4 66 3.5 SW 32 50 17 27 1011.4 1011.4 15.6
21/08:09pm 17.7 11.1 11.3 66 3.5 SW 37 56 20 30 1011.2 1011.2 15.6
21/08:00pm 17.8 11.6 11.4 66 3.5 SW 35 52 19 28 1011.0 1011.0 15.6
21/07:30pm 17.8 12.1 12.9 73 2.7 SW 35 54 19 29 1010.3 1010.3 15.6
21/07:02pm 17.6 11.3 13.5 77 2.3 SW 39 57 21 31 1009.8 1009.8 15.6
21/07:00pm 17.6 10.9 13.5 77 2.3 SW 41 57 22 31 1009.7 1009.7 15.6
21/06:30pm 17.0 10.1 14.5 85 1.4 SW 44 69 24 37 1009.0 1009.0 15.6
21/06:00pm 17.5 11.4 16.2 92 0.8 SW 43 69 23 37 1008.0 1008.0 15.6
21/05:58pm 17.5 12.2 16.2 92 0.8 SW 39 69 21 37 1007.9 1007.9 15.6
21/05:34pm 18.0 13.7 16.9 93 0.7 SW 35 57 19 31 1005.9 1005.9 14.6
21/05:30pm 18.1 14.4 17.0 93 0.7 SW 32 46 17 25 1005.6 1005.6 13.8
21/05:00pm 18.3 13.3 17.0 92 0.8 SW 39 57 21 31 1005.1 1005.1 4.6
21/04:31pm 19.1 14.5 17.1 88 1.2 SW 37 59 20 32 1004.4 1004.4 1.0
21/04:30pm 19.1 14.8 16.9 87 1.3 SW 35 52 19 28 1004.3 1004.3 1.0
21/04:00pm 20.3 15.3 16.1 77 2.5 SW 37 52 20 28 1004.2 1004.2 0.4
21/03:30pm 21.3 16.3 17.1 77 2.6 SW 39 61 21 33 1003.1 1003.1 0.4
21/03:00pm 22.3 19.5 18.1 77 2.6 W 30 56 16 30 1002.2 1002.2 0.4
21/02:56pm 22.8 19.4 16.8 69 3.7 W 30 72 16 39 1002.2 1002.2 0.4
21/02:47pm 27.1 23.1 14.1 44 7.7 NW 28 72 15 39 1001.5 1001.5 0.2
21/02:30pm 34.4 27.6 5.0 16 15.7 NW 30 59 16 32 1000.1 1000.1 0.0
21/02:15pm 35.6 28.6 1.8 12 17.2 NW 28 50 15 27 1000.0 1000.0 0.0
21/02:00pm 35.6 29.0 1.8 12 17.3 NNW 26 43 14 23 1000.1 1000.1 0.0
21/01:45pm 35.8 28.8 2.0 12 17.3 NNW 28 48 15 26 1000.3 1000.3 0.0
21/01:30pm 34.8 29.0 2.3 13 16.6 NNW 22 41 12 22 1000.6 1000.6 0.0
21/01:00pm 35.5 27.7 -0.8 10 17.8 NNW 30 50 16 27 1001.5 1001.5 0.0
21/12:53pm 35.4 27.2 -0.8 10 17.7 NNW 32 50 17 27 1001.5 1001.5 0.0
21/12:30pm 35.4 28.7 -0.8 10 17.7 NNW 24 43 13 23 1001.9 1001.9 0.0
21/12:00pm 35.5 28.1 -0.8 10 17.8 NNW 28 46 15 25 1002.5 1002.5 0.0
21/11:34am 36.1 28.4 -0.3 10 18.0 NNW 30 48 16 26 1002.9 1002.9 0.0
21/11:30am 36.3 28.2 -0.2 10 18.1 NNW 32 46 17 25 1002.8 1002.8 0.0
21/11:01am 36.0 27.9 -0.4 10 18.0 NNW 32 50 17 27 1003.7 1003.7 0.0
21/11:00am 36.2 28.1 -0.2 10 18.1 NNW 32 48 17 26 1003.7 1003.7 0.0
21/10:55am 36.2 28.5 -0.2 10 18.0 NNW 30 48 16 26 1003.8 1003.8 0.0
21/10:30am 34.1 26.7 -0.5 11 16.8 NNW 28 39 15 21 1004.2 1004.2 0.0
21/10:00am 33.0 26.4 -0.2 12 16.2 NNW 24 39 13 21 1005.2 1005.2 0.0
21/09:30am 31.6 24.4 0.9 14 15.0 N 28 41 15 22 1005.7 1005.7 0.0
21/09:00am 31.6 24.3 2.7 16 14.6 N 30 44 16 24 1006.1 1006.1 0.0
21/08:30am 29.6 24.2 4.3 20 13.0 N 22 37 12 20 1006.6 1006.6 0.0
21/08:00am 28.2 21.8 5.1 23 11.9 N 28 41 15 22 1006.8 1006.8 0.0
21/07:30am 26.5 21.6 7.0 29 10.3 N 22 37 12 20 1007.4 1007.4 0.0
21/07:00am 23.4 19.1 7.9 37 8.2 NNE 20 30 11 16 1008.0 1008.0 0.0
21/06:30am 20.3 16.9 9.2 49 5.9 NNE 17 24 9 13 1008.4 1008.4 0.0
21/06:00am 17.9 14.9 9.3 57 4.5 NNE 15 22 8 12 1008.6 1008.6 0.0
21/05:30am 16.8 14.2 9.5 62 3.8 NNE 13 17 7 9 1008.7 1008.7 0.0
21/05:00am 16.6 13.6 9.3 62 3.8 NNE 15 19 8 10 1008.8 1008.8 0.0
21/04:30am 17.1 13.8 9.5 61 4.0 NE 17 24 9 13 1008.9 1008.9 0.0
21/04:00am 16.8 12.9 9.5 62 3.8 NE 20 32 11 17 1008.6 1008.6 0.0
21/03:30am 16.9 12.7 9.6 62 3.8 NE 22 32 12 17 1008.7 1008.7 0.0
21/03:00am 16.0 12.3 9.4 65 3.4 NNE 19 24 10 13 1009.2 1009.2 0.0
21/02:30am 15.6 12.3 9.7 68 3.1 NE 17 20 9 11 1009.7 1009.7 0.0
21/02:00am 15.7 12.9 10.0 69 3.0 NE 15 20 8 11 1010.2 1010.2 0.0
21/01:30am 15.6 13.2 10.2 70 2.8 NE 13 17 7 9 1010.5 1010.5 0.0
21/01:00am 16.2 13.9 10.3 68 3.1 NE 13 15 7 8 1010.8 1010.8 0.0
21/12:30am 17.2 14.3 11.0 67 3.3 NE 17 26 9 14 1010.8 1010.8 0.0
21/12:00am 17.5 14.5 11.8 69 3.1 NE 19 26 10 14 1010.7 1010.7 0.0
 
Date/Time
WST
Temp
°C
App
Temp
°C
Dew
Point
°C
Rel
Hum
%
Delta-T
°C
Wind Press
QNH
hPa
Press
MSL
hPa
Rain since
9am
mm
Dir  Spd
km/h
Gust
km/h
Spd
kts
Gust
kts
20/11:30pm 17.8 14.9 12.9 73 2.7 NE 20 26 11 14 1011.1 1011.1 0.0
20/11:00pm 18.1 15.6 13.4 74 2.7 NE 19 26 10 14 1011.4 1011.4 0.0
20/10:30pm 18.6 15.3 13.9 74 2.7 NE 24 32 13 17 1011.4 1011.4 0.0
20/10:00pm 18.7 15.8 14.0 74 2.7 NE 22 28 12 15 1011.7 1011.7 0.0
20/09:30pm 19.0 16.1 14.1 73 2.8 NE 22 28 12 15 1012.1 1012.1 0.0
20/09:00pm 19.1 16.2 13.9 72 3.0 NE 22 30 12 16 1012.4 1012.4 0.0
20/08:30pm 19.5 16.2 13.9 70 3.2 NE 24 30 13 16 1012.6 1012.6 0.0
20/08:00pm 20.1 15.9 14.7 71 3.2 NE 30 41 16 22 1012.8 1012.8 0.0
20/07:30pm 20.9 15.5 16.9 78 2.4 ENE 41 48 22 26 1012.7 1012.7 0.0
20/07:00pm 21.1 15.5 17.5 80 2.2 ENE 43 54 23 29 1012.3 1012.3 0.0
20/06:30pm 21.1 15.5 17.5 80 2.2 ENE 43 52 23 28 1012.1 1012.1 0.0
20/06:00pm 21.2 15.6 17.4 79 2.3 ENE 43 48 23 26 1012.1 1012.1 0.0
20/05:30pm 21.4 15.6 17.0 76 2.7 ENE 43 50 23 27 1011.8 1011.8 0.0
20/05:00pm 21.7 16.3 17.1 75 2.8 ENE 41 46 22 25 1012.0 1012.0 0.0
20/04:30pm 22.1 17.1 17.0 73 3.1 E 39 46 21 25 1012.4 1012.4 0.0
20/04:00pm 22.4 18.2 17.1 72 3.3 E 35 43 19 23 1012.7 1012.7 0.0
20/03:30pm 22.4 17.6 16.7 70 3.5 E 37 43 20 23 1012.5 1012.5 0.0
20/03:00pm 22.5 18.5 16.8 70 3.5 E 33 39 18 21 1012.4 1012.4 0.0
20/02:30pm 22.4 18.0 16.7 70 3.5 E 35 39 19 21 1012.7 1012.7 0.0
20/02:00pm 22.8 18.9 17.0 70 3.6 E 33 39 18 21 1013.0 1013.0 0.0
20/01:30pm 22.7 18.8 16.5 68 3.8 E 32 35 17 19 1013.4 1013.4 0.0
20/01:00pm 22.7 18.5 16.3 67 3.9 E 33 37 18 20 1013.8 1013.8 0.0
20/12:30pm 22.6 18.6 16.2 67 3.9 E 32 37 17 20 1014.1 1014.1 0.0
20/12:00pm 22.8 18.7 15.9 65 4.2 E 32 35 17 19 1014.5 1014.5 0.0
20/11:30am 23.0 18.7 15.3 62 4.6 E 32 35 17 19 1014.8 1014.8 0.0
20/11:00am 24.3 20.8 15.5 58 5.3 ESE 28 32 15 17 1015.3 1015.3 0.0

Other Formats:

Comma delimited format used in spreadsheet applications
http://www.bom.gov.au/fwo/IDW60801/IDW60801.94644.axf

JavaScript Object Notation format (JSON) in row-major order
http://www.bom.gov.au/fwo/IDW60801/IDW60801.94644.json